Hovedside
METAR-TAF:

METAR-TAF

Lufthavner :

Visby lufthavn

Visby, Gotland, Sverige

breddegrad: 57-40N, lengdegrad: 018-21E, høyde over havet: 51 m

Gjeldene værobservasjon

Denne rapporten ble laget for 41 minutter siden, klokken 11:20 UTC
Vind 13 kt fra Vest-sørvest
Temperatur 19°C
Luftfuktighet 68%
Trykk 1008 hPa
Sikt 10 km eller mer
ingen skyer under 1500 m og ingen bygeskyer

METAR: ESSV 031120Z 24013KT CAVOK 19/13 Q1008

Tid: 14:01 (12:01 UTC)

Varsel

Denne rapporten ble laget for 31 minutter siden, klokken 11:30 UTC
Varsel gyldig fra 03. klokken 12 UTC til 03. klokken 21 UTC
Vind 13 kt fra Vest-sørvest
Sikt 10 km eller mer
ingen skyer under 1500 m og ingen bygeskyer

TAF: ESSV 031130Z 0312/0321 25013KT CAVOK

Værobservasjoner og værvarsel for over 4000 flyplasser (METAR- og TAF-rapporter).

Tilgjengelige stasjoner er representert av de røde og gule prikkene på kartet.

Hold musepekeren over prikken for å se navnet på stasjonen.

Klikk så for å se værobservasjoner og -varsler.

For å forandre kartet kan du klikke på den grønne knappen med svart kryss for å zoome inn, på den grønne knappen med strek for å zoome ut, eller på de grønne pilene for å se tilstøtende kart.


METAR-TAF: